Observations for LONDON CITY AIRPORT, United Kingdom (EGLC)

EGLC 180250Z AUTO VRB02KT 9999 NCD 04/02 Q1023  
EGLC 180220Z AUTO VRB02KT 9999 NCD 04/02 Q1023  
EGLC 180150Z AUTO VRB01KT 9999 NCD 04/02 Q1023  
EGLC 180120Z AUTO VRB01KT 9999 NCD 04/02 Q1023  
EGLC 180050Z AUTO VRB01KT 9999 NCD 05/02 Q1023  
EGLC 180020Z AUTO VRB02KT 9999 NCD 05/02 Q1023  
EGLC 172350Z AUTO VRB02KT 9999 NCD 06/03 Q1023  
EGLC 172320Z AUTO VRB03KT 9999 NCD 06/03 Q1023  
EGLC 172250Z AUTO 21003KT 9999 NCD 06/03 Q1024  
EGLC 172220Z AUTO 22004KT 9999 NCD 06/02 Q1024  
EGLC 172150Z AUTO 23005KT 9999 OVC048 06/02 Q1024   
EGLC 172120Z AUTO 21005KT 9999 SCT038 OVC045 07/02 Q1023
EGLC 172050Z AUTO 22005KT 190V250 9999 BKN041 06/02 Q1023   
EGLC 172020Z AUTO 22004KT 9999 NCD 06/02 Q1023  
EGLC 171950Z AUTO 24006KT 9999 FEW049 06/01 Q1023   
EGLC 171920Z AUTO 20006KT 160V250 9999 NCD 07/01 Q1023  
EGLC 171850Z AUTO 19004KT 130V290 9999 FEW045 08/01 Q1023   
EGLC 171820Z AUTO 21006KT 170V230 9999 NCD 08/01 Q1023  
EGLC 171750Z AUTO 20005KT 9999 NCD 09/M00 Q1023 
EGLC 171720Z AUTO 23005KT 9999 NCD 09/M01 Q1022 
EGLC 171650Z AUTO 23007KT 9999 FEW048 09/M01 Q1022  
EGLC 171620Z AUTO 22006KT 190V250 9999 NCD 10/M01 Q1022 
EGLC 171550Z AUTO 24005KT 190V310 9999 FEW047 11/M01 Q1022  
EGLC 171520Z AUTO 25006KT 200V280 9999 NCD 11/M02 Q1022 
EGLC 171450Z AUTO 23006KT 200V280 9999 NCD 11/M01 Q1022 
EGLC 171420Z AUTO 22006KT 160V260 9999 FEW043 11/M01 Q1022  
EGLC 171350Z AUTO VRB03KT 9999 NCD 11/M00 Q1022 
EGLC 171320Z AUTO VRB03KT 9999 NCD 11/M00 Q1022 
EGLC 171250Z AUTO VRB04KT 9999 FEW037 10/00 Q1022   
EGLC 171220Z AUTO VRB02KT 9999 FEW035 10/01 Q1022   
EGLC 171150Z AUTO 08004KT 9999 NCD 08/01 Q1023  
EGLC 171120Z AUTO 07003KT 9999 NCD 08/03 Q1023  
EGLC 171050Z AUTO 07003KT 9999 NCD 07/03 Q1023  
EGLC 171020Z AUTO 09003KT 9999 NCD 06/03 Q1022  
EGLC 170950Z AUTO 09003KT 9999 NCD 05/03 Q1022  
EGLC 170920Z AUTO 09003KT 9999 NCD 04/03 Q1022  
EGLC 170850Z AUTO 10004KT 7000 NCD 04/02 Q1022  
EGLC 170820Z AUTO 10004KT 5000 HZ NCD 03/02 Q1022   
EGLC 170750Z AUTO 08004KT 7000 NCD 03/02 Q1022  
EGLC 170720Z AUTO VRB02KT 8000 NCD 02/01 Q1022  
EGLC 170650Z AUTO VRB02KT 7000 NCD 02/01 Q1021  
EGLC 170620Z AUTO 00000KT 7000 NCD 02/01 Q1021  
EGLC 170550Z AUTO VRB03KT 9000 NCD 02/01 Q1021  
EGLC 170520Z AUTO VRB01KT 9000 NCD 03/01 Q1021  
EGLC 170450Z AUTO VRB02KT 9999 NCD 03/02 Q1021  
EGLC 170420Z AUTO 07004KT 9999 NCD 03/02 Q1021  
EGLC 170350Z AUTO 07004KT 040V100 9999 NCD 04/02 Q1021  
EGLC 170320Z AUTO 07004KT 9999 NCD 04/02 Q1021  
EGLC 170250Z AUTO 07005KT 9999 NCD 04/02 Q1022  
EGLC 170220Z AUTO 08004KT 9999 NCD 04/02 Q1022